createdAt,value
2023-02-04T00:00:07.822Z,98028.78
2023-02-04T00:02:35.177Z,98023.56
2023-02-04T00:05:02.057Z,98034.94
2023-02-04T00:07:28.746Z,98034.63
2023-02-04T00:09:55.494Z,98031.47
2023-02-04T00:12:22.600Z,98039.06
2023-02-04T00:14:49.276Z,98019.41
2023-02-04T00:17:15.947Z,98022.06
2023-02-04T00:19:42.587Z,98030.69
2023-02-04T00:22:09.943Z,98011.16
2023-02-04T00:24:37.631Z,98005.03
2023-02-04T00:27:05.951Z,98008.28
2023-02-04T00:29:32.546Z,97991.56
2023-02-04T00:31:59.303Z,98000.16
2023-02-04T00:34:26.115Z,97985.41
2023-02-04T00:36:52.698Z,97983.94
2023-02-04T00:39:19.367Z,98006.78
2023-02-04T00:41:46.000Z,97996.63
2023-02-04T00:44:14.120Z,97999.88
2023-02-04T00:46:42.577Z,98015.81
2023-02-04T00:49:10.787Z,98004.47
2023-02-04T00:51:41.137Z,97993.44
2023-02-04T00:54:07.866Z,98007.19
2023-02-04T00:56:34.839Z,97997.59
2023-02-04T00:59:01.709Z,97986.06
2023-02-04T01:01:28.557Z,97989.72
2023-02-04T01:03:55.265Z,97997.31
2023-02-04T01:06:21.930Z,97990.75
2023-02-04T01:08:48.565Z,97995.88
2023-02-04T01:11:15.187Z,98007.63
2023-02-04T01:13:42.264Z,98004.94
2023-02-04T01:16:09.673Z,98006.41
2023-02-04T01:18:36.370Z,98017.72
2023-02-04T01:21:03.137Z,98030.97
2023-02-04T01:23:29.764Z,98024.09
2023-02-04T01:25:56.498Z,98024.56
2023-02-04T01:28:23.118Z,98024.56
2023-02-04T01:30:49.760Z,98028.00
2023-02-04T01:33:16.624Z,98029.50
2023-02-04T01:35:43.399Z,98034.66
2023-02-04T01:38:10.144Z,98029.25
2023-02-04T01:40:37.130Z,98029.00
2023-02-04T01:43:04.084Z,98020.88
2023-02-04T01:45:33.635Z,98027.72
2023-02-04T01:48:00.742Z,98054.06
2023-02-04T01:50:27.418Z,98055.31
2023-02-04T01:52:54.178Z,98049.19
2023-02-04T01:55:25.984Z,98036.34
2023-02-04T01:57:53.338Z,98042.75
2023-02-04T02:00:26.034Z,98054.28
2023-02-04T02:02:53.533Z,98050.34
2023-02-04T02:05:36.134Z,98048.44
2023-02-04T02:08:04.865Z,98047.13
2023-02-04T02:10:32.898Z,98052.53
2023-02-04T02:13:00.226Z,98059.66
2023-02-04T02:15:27.494Z,98061.16
2023-02-04T02:17:55.116Z,98067.75
2023-02-04T02:20:23.622Z,98063.84
2023-02-04T02:23:22.035Z,98080.56
2023-02-04T02:25:49.540Z,98071.00
2023-02-04T02:28:19.093Z,98094.63
2023-02-04T02:30:47.108Z,98085.78
2023-02-04T02:33:17.369Z,98101.28
2023-02-04T02:35:48.263Z,98071.00
2023-02-04T02:38:17.319Z,98079.66
2023-02-04T02:40:44.195Z,98086.53
2023-02-04T02:43:20.161Z,98067.56
2023-02-04T02:45:47.667Z,98090.41
2023-02-04T02:48:14.732Z,98085.00
2023-02-04T02:50:43.213Z,98086.69
2023-02-04T02:53:15.461Z,98084.25
2023-02-04T02:55:42.471Z,98096.25
2023-02-04T02:58:32.755Z,98089.66
2023-02-04T03:01:06.346Z,98093.38
2023-02-04T03:03:36.042Z,98083.00
2023-02-04T03:06:10.106Z,98090.19
2023-02-04T03:08:37.402Z,98120.19
2023-02-04T03:11:04.226Z,98104.66
2023-02-04T03:13:31.102Z,98087.16
2023-02-04T03:15:58.286Z,98118.41
2023-02-04T03:18:25.017Z,98106.91
2023-02-04T03:20:52.266Z,98108.88
2023-02-04T03:23:20.314Z,98125.28
2023-02-04T03:25:47.304Z,98134.19
2023-02-04T03:28:14.058Z,98131.19
2023-02-04T03:30:40.838Z,98152.66
2023-02-04T03:33:07.516Z,98144.78
2023-02-04T03:35:34.109Z,98141.53
2023-02-04T03:38:00.758Z,98164.16
2023-02-04T03:40:27.390Z,98169.38
2023-02-04T03:42:54.059Z,98166.09
2023-02-04T03:45:21.273Z,98172.34
2023-02-04T03:47:47.900Z,98174.00
2023-02-04T03:50:14.977Z,98171.13
2023-02-04T03:52:41.646Z,98163.28
2023-02-04T03:55:08.567Z,98188.81
2023-02-04T03:57:35.182Z,98184.84
2023-02-04T04:00:01.855Z,98208.53
2023-02-04T04:02:28.525Z,98182.94
2023-02-04T04:04:55.164Z,98200.44
2023-02-04T04:07:21.839Z,98207.31
2023-02-04T04:09:48.406Z,98206.63
2023-02-04T04:12:15.038Z,98207.34
2023-02-04T04:14:41.683Z,98183.03
2023-02-04T04:17:08.304Z,98195.84
2023-02-04T04:19:34.963Z,98200.50
2023-02-04T04:22:01.616Z,98186.72
2023-02-04T04:24:28.248Z,98201.28
2023-02-04T04:26:54.852Z,98211.63
2023-02-04T04:29:21.483Z,98203.97
2023-02-04T04:31:48.151Z,98214.13
2023-02-04T04:34:14.800Z,98200.09
2023-02-04T04:36:41.434Z,98207.69
2023-02-04T04:39:08.036Z,98213.13
2023-02-04T04:41:34.671Z,98202.53
2023-02-04T04:44:01.298Z,98218.53
2023-02-04T04:46:27.931Z,98219.00
2023-02-04T04:48:54.558Z,98220.72
2023-02-04T04:51:21.182Z,98224.41
2023-02-04T04:53:47.798Z,98229.31
2023-02-04T04:56:14.409Z,98246.56
2023-02-04T04:58:41.012Z,98229.56
2023-02-04T05:01:07.694Z,98247.56
2023-02-04T05:03:34.358Z,98252.69
2023-02-04T05:06:00.988Z,98260.06
2023-02-04T05:08:27.615Z,98254.66
2023-02-04T05:10:54.224Z,98273.09
2023-02-04T05:13:20.922Z,98293.50
2023-02-04T05:15:47.550Z,98272.63
2023-02-04T05:18:14.151Z,98256.09
2023-02-04T05:20:40.764Z,98276.28
2023-02-04T05:23:07.415Z,98295.69
2023-02-04T05:25:34.079Z,98290.03
2023-02-04T05:28:00.782Z,98298.88
2023-02-04T05:30:27.500Z,98316.09
2023-02-04T05:32:54.147Z,98315.09
2023-02-04T05:35:20.839Z,98322.03
2023-02-04T05:37:47.508Z,98327.66
2023-02-04T05:40:14.378Z,98336.53
2023-02-04T05:42:41.916Z,98351.53
2023-02-04T05:45:15.626Z,98369.00
2023-02-04T05:47:42.937Z,98368.00
2023-02-04T05:50:09.890Z,98384.72
2023-02-04T05:52:36.532Z,98380.78
2023-02-04T05:55:03.465Z,98397.75
2023-02-04T05:57:30.230Z,98404.66
2023-02-04T05:59:56.852Z,98401.94
2023-02-04T06:02:23.562Z,98412.53
2023-02-04T06:04:50.127Z,98410.56
2023-02-04T06:07:16.770Z,98419.88
2023-02-04T06:09:43.412Z,98422.84
2023-02-04T06:12:10.582Z,98434.16
2023-02-04T06:14:37.206Z,98446.44
2023-02-04T06:17:04.034Z,98475.69
2023-02-04T06:19:30.615Z,98485.50
2023-02-04T06:21:57.359Z,98498.28
2023-02-04T06:24:23.992Z,98508.88
2023-02-04T06:26:50.563Z,98542.00
2023-02-04T06:29:17.174Z,98548.97
2023-02-04T06:31:44.672Z,98544.38
2023-02-04T06:34:11.359Z,98555.28
2023-02-04T06:36:38.000Z,98564.38
2023-02-04T06:39:04.664Z,98587.66
2023-02-04T06:41:31.271Z,98598.00
2023-02-04T06:43:57.908Z,98593.56
2023-02-04T06:46:24.567Z,98606.56
2023-02-04T06:48:51.164Z,98614.50
2023-02-04T06:51:17.815Z,98622.97
2023-02-04T06:53:45.854Z,98630.31
2023-02-04T06:56:12.623Z,98639.34
2023-02-04T06:58:39.308Z,98651.09
2023-02-04T07:01:06.439Z,98665.09
2023-02-04T07:03:33.988Z,98672.53
2023-02-04T07:06:00.671Z,98681.59
2023-02-04T07:08:27.376Z,98695.38
2023-02-04T07:10:53.982Z,98700.19
2023-02-04T07:13:20.568Z,98719.56
2023-02-04T07:15:47.181Z,98732.63
2023-02-04T07:18:14.082Z,98730.41
2023-02-04T07:20:40.676Z,98741.41
2023-02-04T07:23:07.266Z,98748.75
2023-02-04T07:25:33.883Z,98754.47
2023-02-04T07:28:02.014Z,98766.97
2023-02-04T07:30:28.672Z,98765.47
2023-02-04T07:32:55.316Z,98785.19
2023-02-04T07:35:21.969Z,98778.34
2023-02-04T07:37:48.592Z,98786.75
2023-02-04T07:40:15.462Z,98799.00
2023-02-04T07:42:42.081Z,98808.94
2023-02-04T07:45:09.204Z,98819.72
2023-02-04T07:47:35.898Z,98816.09
2023-02-04T07:50:02.529Z,98823.78
2023-02-04T07:52:29.163Z,98828.03
2023-02-04T07:54:55.792Z,98836.66
2023-02-04T07:57:22.515Z,98845.69
2023-02-04T07:59:49.130Z,98840.50
2023-02-04T08:02:15.762Z,98851.94
2023-02-04T08:04:42.401Z,98854.50
2023-02-04T08:07:09.072Z,98861.63
2023-02-04T08:09:35.757Z,98866.06
2023-02-04T08:12:02.533Z,98878.13
2023-02-04T08:14:29.209Z,98873.28
2023-02-04T08:16:55.859Z,98878.16
2023-02-04T08:19:22.548Z,98888.44
2023-02-04T08:21:49.246Z,98894.41
2023-02-04T08:24:16.410Z,98891.72
2023-02-04T08:26:44.302Z,98905.63
2023-02-04T08:29:11.009Z,98908.72
2023-02-04T08:31:38.365Z,98904.09
2023-02-04T08:34:05.912Z,98918.91
2023-02-04T08:36:34.467Z,98928.97
2023-02-04T08:39:01.340Z,98930.44
2023-02-04T08:41:27.942Z,98925.25
2023-02-04T08:43:54.522Z,98924.94
2023-02-04T08:46:21.216Z,98932.50
2023-02-04T08:48:47.969Z,98947.28
2023-02-04T08:51:14.817Z,98946.00
2023-02-04T08:53:41.448Z,98951.88
2023-02-04T08:56:09.268Z,98943.28
2023-02-04T08:58:36.550Z,98949.75
2023-02-04T09:01:03.342Z,98961.97
2023-02-04T09:03:29.976Z,98970.03
2023-02-04T09:05:56.642Z,98976.91
2023-02-04T09:08:23.224Z,98985.59
2023-02-04T09:10:49.877Z,99001.78
2023-02-04T09:13:16.611Z,99006.22
2023-02-04T09:15:43.215Z,99014.16
2023-02-04T09:18:17.920Z,99019.94
2023-02-04T09:20:45.543Z,99035.75
2023-02-04T09:23:12.958Z,99032.13
2023-02-04T09:25:40.347Z,99043.56
2023-02-04T09:28:10.076Z,99043.25
2023-02-04T09:30:37.442Z,99049.28
2023-02-04T09:33:04.321Z,99062.13
2023-02-04T09:35:31.127Z,99056.81
2023-02-04T09:37:57.745Z,99065.09
2023-02-04T09:40:27.458Z,99071.38
2023-02-04T09:42:55.551Z,99079.38
2023-02-04T09:45:26.744Z,99082.63
2023-02-04T09:47:54.446Z,99085.81
2023-02-04T09:50:24.406Z,99082.78
2023-02-04T09:52:54.360Z,99089.84
2023-02-04T09:55:25.107Z,99094.47
2023-02-04T09:57:51.740Z,99095.50
2023-02-04T10:00:22.492Z,99094.56
2023-02-04T10:02:49.331Z,99094.78
2023-02-04T10:05:24.680Z,99115.34
2023-02-04T10:07:51.276Z,99108.28
2023-02-04T10:10:20.265Z,99108.00
2023-02-04T10:12:48.546Z,99101.09
2023-02-04T10:15:20.664Z,99107.63
2023-02-04T10:17:54.563Z,99096.84
2023-02-04T10:20:23.876Z,99099.50
2023-02-04T10:22:53.650Z,99092.16
2023-02-04T10:25:23.235Z,99094.94
2023-02-04T10:27:55.468Z,99099.00
2023-02-04T10:30:35.602Z,99090.22
2023-02-04T10:33:24.780Z,99092.31
2023-02-04T10:35:54.030Z,99082.00
2023-02-04T10:38:21.142Z,99082.84
2023-02-04T10:40:47.839Z,99079.41
2023-02-04T10:43:23.802Z,99069.88
2023-02-04T10:45:59.053Z,99077.78
2023-02-04T10:48:26.240Z,99071.75
2023-02-04T10:50:52.963Z,99076.16
2023-02-04T10:53:45.088Z,99077.84
2023-02-04T10:56:17.648Z,99074.94
2023-02-04T10:58:44.522Z,99082.09
2023-02-04T11:01:12.384Z,99091.53
2023-02-04T11:03:40.378Z,99078.88
2023-02-04T11:06:13.431Z,99081.66
2023-02-04T11:08:40.906Z,99075.03
2023-02-04T11:11:19.321Z,99083.56
2023-02-04T11:13:59.136Z,99086.19
2023-02-04T11:16:32.948Z,99082.88
2023-02-04T11:19:05.591Z,99072.47
2023-02-04T11:21:42.515Z,99078.59
2023-02-04T11:24:33.065Z,99088.56
2023-02-04T11:27:09.102Z,99089.94
2023-02-04T11:29:42.804Z,99078.72
2023-02-04T11:32:37.695Z,99077.94
2023-02-04T11:35:28.636Z,99075.66
2023-02-04T11:37:56.055Z,99078.41
2023-02-04T11:40:40.830Z,99072.72
2023-02-04T11:43:14.965Z,99071.66
2023-02-04T11:45:42.584Z,99072.94
2023-02-04T11:48:15.571Z,99078.00
2023-02-04T11:50:42.303Z,99074.63
2023-02-04T11:53:11.623Z,99079.50
2023-02-04T11:55:47.398Z,99074.16
2023-02-04T11:58:16.761Z,99083.41
2023-02-04T12:00:44.052Z,99093.47
2023-02-04T12:03:36.172Z,99096.50
2023-02-04T12:06:03.542Z,99094.09
2023-02-04T12:08:36.203Z,99087.44
2023-02-04T12:11:07.643Z,99088.88
2023-02-04T12:13:45.329Z,99076.72
2023-02-04T12:16:11.927Z,99078.94
2023-02-04T12:18:39.130Z,99090.25
2023-02-04T12:21:05.840Z,99081.78
2023-02-04T12:23:32.582Z,99080.44
2023-02-04T12:25:59.308Z,99080.28
2023-02-04T12:28:28.095Z,99074.16
2023-02-04T12:30:55.527Z,99083.94
2023-02-04T12:33:22.840Z,99076.47
2023-02-04T12:35:49.468Z,99073.41
2023-02-04T12:38:16.340Z,99076.97
2023-02-04T12:40:43.172Z,99080.50
2023-02-04T12:43:09.783Z,99078.88
2023-02-04T12:45:37.800Z,99079.69
2023-02-04T12:48:04.471Z,99084.53
2023-02-04T12:50:31.094Z,99083.81
2023-02-04T12:52:59.283Z,99093.53
2023-02-04T12:55:28.832Z,99092.66
2023-02-04T12:57:56.347Z,99093.78
2023-02-04T13:00:23.227Z,99093.09
2023-02-04T13:02:50.223Z,99096.34
2023-02-04T13:05:17.401Z,99104.34
2023-02-04T13:07:44.188Z,99102.66
2023-02-04T13:10:11.640Z,99105.91
2023-02-04T13:12:38.223Z,99100.25
2023-02-04T13:15:05.885Z,99112.72
2023-02-04T13:17:32.551Z,99107.00
2023-02-04T13:20:00.549Z,99109.81
2023-02-04T13:22:27.679Z,99113.75
2023-02-04T13:24:54.384Z,99108.81
2023-02-04T13:27:21.057Z,99114.81
2023-02-04T13:29:47.694Z,99106.47
2023-02-04T13:32:14.246Z,99116.13
2023-02-04T13:34:40.947Z,99120.44
2023-02-04T13:37:07.714Z,99119.44
2023-02-04T13:39:34.309Z,99130.88
2023-02-04T13:42:00.910Z,99130.44
2023-02-04T13:44:27.756Z,99130.63
2023-02-04T13:46:54.375Z,99134.34
2023-02-04T13:49:21.669Z,99127.94
2023-02-04T13:51:48.272Z,99128.28
2023-02-04T13:54:14.972Z,99129.63
2023-02-04T13:56:41.558Z,99142.06
2023-02-04T13:59:08.222Z,99141.66
2023-02-04T14:01:34.852Z,99144.56
2023-02-04T14:04:01.545Z,99155.63
2023-02-04T14:06:34.466Z,99154.34
2023-02-04T14:09:01.766Z,99156.91
2023-02-04T14:11:28.741Z,99152.84
2023-02-04T14:13:55.523Z,99161.59
2023-02-04T14:16:22.252Z,99165.44
2023-02-04T14:18:48.909Z,99169.13
2023-02-04T14:21:15.548Z,99166.78
2023-02-04T14:23:42.311Z,99166.88
2023-02-04T14:26:10.500Z,99164.34
2023-02-04T14:28:37.089Z,99169.00
2023-02-04T14:31:03.892Z,99179.50
2023-02-04T14:33:30.545Z,99182.22
2023-02-04T14:35:57.146Z,99180.69
2023-02-04T14:38:23.696Z,99189.25
2023-02-04T14:40:50.335Z,99189.47
2023-02-04T14:43:16.934Z,99192.44
2023-02-04T14:45:43.618Z,99200.94
2023-02-04T14:48:10.482Z,99195.53
2023-02-04T14:50:37.095Z,99204.09
2023-02-04T14:53:03.775Z,99199.06
2023-02-04T14:55:30.375Z,99208.28
2023-02-04T14:57:56.992Z,99211.91
2023-02-04T15:00:24.068Z,99216.66
2023-02-04T15:02:50.992Z,99219.09
2023-02-04T15:05:18.068Z,99218.25
2023-02-04T15:07:44.634Z,99216.19
2023-02-04T15:10:14.808Z,99220.66
2023-02-04T15:12:41.853Z,99223.47
2023-02-04T15:15:09.194Z,99230.06
2023-02-04T15:17:35.795Z,99227.72
2023-02-04T15:20:04.087Z,99233.03
2023-02-04T15:22:30.728Z,99237.00
2023-02-04T15:24:57.359Z,99240.00
2023-02-04T15:27:24.430Z,99236.16
2023-02-04T15:29:51.052Z,99248.44
2023-02-04T15:32:17.717Z,99246.19
2023-02-04T15:34:44.344Z,99245.91
2023-02-04T15:37:11.026Z,99249.91
2023-02-04T15:39:38.603Z,99261.09
2023-02-04T15:42:05.294Z,99264.44
2023-02-04T15:44:32.136Z,99265.97
2023-02-04T15:46:58.783Z,99266.66
2023-02-04T15:49:25.435Z,99256.50
2023-02-04T15:51:52.051Z,99266.09
2023-02-04T15:54:18.671Z,99266.31
2023-02-04T15:56:45.280Z,99277.53
2023-02-04T15:59:11.982Z,99278.59
2023-02-04T16:01:38.707Z,99281.13
2023-02-04T16:04:05.410Z,99289.94
2023-02-04T16:06:32.032Z,99290.81
2023-02-04T16:08:58.662Z,99292.47
2023-02-04T16:11:25.347Z,99299.34
2023-02-04T16:13:52.150Z,99301.19
2023-02-04T16:16:19.600Z,99299.00
2023-02-04T16:18:46.224Z,99300.19
2023-02-04T16:21:12.942Z,99314.13
2023-02-04T16:23:39.537Z,99313.88
2023-02-04T16:26:06.150Z,99309.53
2023-02-04T16:28:32.717Z,99315.84
2023-02-04T16:30:59.433Z,99314.78
2023-02-04T16:33:27.887Z,99314.78
2023-02-04T16:36:07.463Z,99318.22
2023-02-04T16:38:36.592Z,99324.56
2023-02-04T16:41:03.569Z,99326.03
2023-02-04T16:43:30.427Z,99326.31
2023-02-04T16:45:57.088Z,99329.47
2023-02-04T16:48:24.620Z,99341.00
2023-02-04T16:50:51.464Z,99344.91
2023-02-04T16:53:18.094Z,99341.81
2023-02-04T16:55:46.162Z,99345.53
2023-02-04T16:58:13.670Z,99346.94
2023-02-04T17:00:44.816Z,99356.44
2023-02-04T17:03:12.181Z,99351.31
2023-02-04T17:05:39.707Z,99364.03
2023-02-04T17:08:06.970Z,99368.38
2023-02-04T17:10:52.170Z,99368.69
2023-02-04T17:13:19.142Z,99375.25
2023-02-04T17:15:45.789Z,99385.59
2023-02-04T17:18:12.369Z,99386.34
2023-02-04T17:20:39.038Z,99392.31
2023-02-04T17:23:05.600Z,99388.88
2023-02-04T17:25:32.623Z,99389.03
2023-02-04T17:27:59.351Z,99402.66
2023-02-04T17:30:26.017Z,99407.59
2023-02-04T17:32:52.652Z,99405.34
2023-02-04T17:35:19.289Z,99401.19
2023-02-04T17:37:45.891Z,99396.38
2023-02-04T17:40:15.651Z,99404.72
2023-02-04T17:42:42.372Z,99411.22
2023-02-04T17:45:10.747Z,99413.03
2023-02-04T17:47:40.935Z,99414.81
2023-02-04T17:50:10.048Z,99412.72
2023-02-04T17:52:37.946Z,99422.16
2023-02-04T17:55:32.695Z,99419.91
2023-02-04T17:58:39.037Z,99421.06
2023-02-04T18:01:14.860Z,99418.66
2023-02-04T18:03:46.017Z,99418.03
2023-02-04T18:06:20.360Z,99419.41
2023-02-04T18:08:47.772Z,99418.38
2023-02-04T18:11:27.513Z,99421.22
2023-02-04T18:13:57.632Z,99413.72
2023-02-04T18:16:30.528Z,99419.56
2023-02-04T18:19:08.620Z,99423.59
2023-02-04T18:21:37.070Z,99425.88
2023-02-04T18:24:18.569Z,99425.56
2023-02-04T18:26:53.449Z,99431.53
2023-02-04T18:29:37.460Z,99438.16
2023-02-04T18:32:25.739Z,99431.28
2023-02-04T18:34:54.135Z,99429.78
2023-02-04T18:37:33.755Z,99440.28
2023-02-04T18:40:33.558Z,99440.59
2023-02-04T18:43:36.899Z,99444.78
2023-02-04T18:46:16.318Z,99445.84
2023-02-04T18:49:02.919Z,99442.66
2023-02-04T18:51:32.634Z,99441.06
2023-02-04T18:54:17.809Z,99445.34
2023-02-04T18:56:44.479Z,99448.47
2023-02-04T18:59:15.902Z,99448.06
2023-02-04T19:01:43.725Z,99451.81
2023-02-04T19:04:20.951Z,99454.66
2023-02-04T19:06:51.029Z,99449.69
2023-02-04T19:09:27.171Z,99453.28
2023-02-04T19:11:55.996Z,99452.09
2023-02-04T19:14:36.352Z,99450.44
2023-02-04T19:17:21.294Z,99454.03
2023-02-04T19:19:55.989Z,99452.38
2023-02-04T19:22:31.945Z,99447.75
2023-02-04T19:25:18.702Z,99444.78
2023-02-04T19:27:51.073Z,99448.66
2023-02-04T19:30:40.700Z,99449.41
2023-02-04T19:33:16.258Z,99450.59
2023-02-04T19:35:43.357Z,99451.69
2023-02-04T19:38:45.155Z,99456.88
2023-02-04T19:41:49.065Z,99452.25
2023-02-04T19:44:45.744Z,99445.97
2023-02-04T19:47:24.574Z,99443.28
2023-02-04T19:49:55.496Z,99438.50
2023-02-04T19:52:43.765Z,99443.00
2023-02-04T19:58:29.407Z,99451.22
2023-02-04T20:01:18.199Z,99449.13
2023-02-04T20:03:49.080Z,99448.69
2023-02-04T20:06:45.564Z,99452.13
2023-02-04T20:09:29.125Z,99449.91
2023-02-04T20:12:05.922Z,99457.38
2023-02-04T20:14:53.340Z,99455.88
2023-02-04T20:17:41.862Z,99456.75
2023-02-04T20:20:29.929Z,99464.38
2023-02-04T20:23:23.154Z,99466.94
2023-02-04T20:25:50.496Z,99475.19
2023-02-04T20:28:42.348Z,99480.69
2023-02-04T20:31:29.071Z,99483.84
2023-02-04T20:33:59.372Z,99480.72
2023-02-04T20:36:47.218Z,99475.91
2023-02-04T20:39:36.468Z,99472.59
2023-02-04T20:42:20.867Z,99477.69
2023-02-04T20:44:48.157Z,99475.31
2023-02-04T20:47:23.840Z,99476.94
2023-02-04T20:49:58.272Z,99475.47
2023-02-04T20:52:40.106Z,99466.63
2023-02-04T20:55:27.243Z,99468.16
2023-02-04T20:58:21.738Z,99466.03
2023-02-04T21:00:53.293Z,99466.50
2023-02-04T21:03:26.483Z,99472.47
2023-02-04T21:05:54.588Z,99472.91
2023-02-04T21:08:35.701Z,99476.06
2023-02-04T21:11:02.954Z,99471.56
2023-02-04T21:13:29.775Z,99474.72
2023-02-04T21:15:56.695Z,99475.19
2023-02-04T21:18:23.472Z,99473.69
2023-02-04T21:20:50.036Z,99475.63
2023-02-04T21:23:17.883Z,99472.16
2023-02-04T21:25:44.998Z,99478.59
2023-02-04T21:28:12.194Z,99470.09
2023-02-04T21:30:38.843Z,99474.72
2023-02-04T21:33:05.718Z,99478.00
2023-02-04T21:35:32.604Z,99479.22
2023-02-04T21:37:59.876Z,99478.91
2023-02-04T21:40:26.818Z,99479.81
2023-02-04T21:42:53.958Z,99482.66
2023-02-04T21:45:22.745Z,99479.50
2023-02-04T21:47:50.425Z,99473.81
2023-02-04T21:50:19.212Z,99481.88
2023-02-04T21:52:46.192Z,99482.78
2023-02-04T21:55:14.499Z,99484.25
2023-02-04T21:57:41.099Z,99483.22
2023-02-04T22:00:09.891Z,99490.69
2023-02-04T22:02:36.471Z,99489.72
2023-02-04T22:05:07.239Z,99481.69
2023-02-04T22:07:35.135Z,99487.06
2023-02-04T22:10:02.214Z,99486.00
2023-02-04T22:12:28.852Z,99485.44
2023-02-04T22:15:14.076Z,99489.03
2023-02-04T22:17:40.820Z,99502.00
2023-02-04T22:20:08.087Z,99492.75
2023-02-04T22:22:34.829Z,99490.81
2023-02-04T22:25:01.838Z,99480.22
2023-02-04T22:27:28.411Z,99483.31
2023-02-04T22:29:56.846Z,99483.63
2023-02-04T22:32:24.191Z,99485.28
2023-02-04T22:34:50.930Z,99490.78
2023-02-04T22:37:17.775Z,99484.66
2023-02-04T22:39:44.412Z,99484.38
2023-02-04T22:42:11.029Z,99488.72
2023-02-04T22:44:37.759Z,99493.34
2023-02-04T22:47:04.768Z,99494.22
2023-02-04T22:49:35.715Z,99495.56
2023-02-04T22:52:03.946Z,99496.78
2023-02-04T22:54:31.052Z,99500.63
2023-02-04T22:57:00.171Z,99497.78
2023-02-04T22:59:27.822Z,99494.69
2023-02-04T23:01:55.777Z,99500.22
2023-02-04T23:04:23.058Z,99500.63
2023-02-04T23:06:50.476Z,99496.19
2023-02-04T23:09:18.855Z,99495.72
2023-02-04T23:11:45.521Z,99500.47
2023-02-04T23:14:12.463Z,99501.09
2023-02-04T23:16:39.592Z,99491.69
2023-02-04T23:19:06.488Z,99495.16
2023-02-04T23:21:33.563Z,99493.94
2023-02-04T23:24:00.529Z,99489.03
2023-02-04T23:26:27.278Z,99488.75
2023-02-04T23:28:53.898Z,99485.88
2023-02-04T23:31:20.542Z,99490.63
2023-02-04T23:33:47.214Z,99494.38
2023-02-04T23:36:14.013Z,99488.53
2023-02-04T23:38:40.606Z,99489.88
2023-02-04T23:41:07.232Z,99484.81
2023-02-04T23:43:33.906Z,99486.88
2023-02-04T23:46:00.597Z,99488.97
2023-02-04T23:48:27.263Z,99488.97
2023-02-04T23:50:57.017Z,99489.69
2023-02-04T23:53:24.148Z,99489.53
2023-02-04T23:55:51.500Z,99492.38
2023-02-04T23:58:18.292Z,99500.31
